Slinger, WI (53086)

5:13 PM CDT on April 25, 2015 (GMT -0500)
Washington County Golf Course, 6439 Clover Rd. | | Change Station
CLOSE
Current Station
Personal Weather Station
Location: Hartford, WI
Elevation: 1055 ft
Nearby Weather Stations

Elev 1055 ft 43.34 °N, 88.36 °W | Updated 8 seconds ago

Overcast
Overcast
47.9 °F
Feels Like 44 °F
N
8.0
Wind Variable Wind from NE
Gusts 11.0 mph

Today
High -- | Low -- °F
--% Chance of Precip.
Yesterday
High -- | Low -- °F
Precip. -- in
5:55 AM 7:47 PM
Waxing Crescent, 49% visible
Pressure 29.84 in
Visibility 10.0 miles
Clouds Overcast 4700 ft
Windchill 44 °F
Dew Point 28 °F
Humidity 46%
Rainfall 0.00 in
Snow Depth Not available.
UV 1 out of 12
Pollen 2.80 out of 12
Air Quality Not available.
Flu Activity Local Activity
METAR KETB 252150Z AUTO 03008KT 360V060 10SM OVC047 07/M06 A2984 RMK AO2

More Conditions Fewer Conditions

Pressure 29.84 in
Visibility 10.0 miles
Clouds Overcast 4700 ft
Windchill 44 °F
Dew Point 28 °F
Humidity 46%
Rainfall 0.00 in
Snow Depth Not available.
UV 1 out of 12
Pollen 2.80 out of 12
Air Quality Not available.
Flu Activity Local Activity
METAR KETB 252150Z AUTO 03008KT 360V060 10SM OVC047 07/M06 A2984 RMK AO2

More Conditions Fewer Conditions

10-Day Weather Forecast

Almanac

Astronomy

Apr. 25, 2015 Rise Set
Actual Time
Civil Twilight
Nautical Twilight
Astronomical Twilight
Moon
Length of Visible Light
Length of Day
Tomorrow will be .
, % of the Moon is Illuminated

Today's Extremes

State Highs State Lows

Community

WunderPhotos

Upload Photos

1,816,827 photos uploaded!

WunderBlogs® & News

Nearby

Air Quality

  Air Quality AQ Index Pollutant
Not available.

Snow Depth

Station Depth Elevation

Earthquake Activity

City Distance Mag. Time & Date
Minimum magnitude displayed is 2.5.

Coastal Water Temperatures

Place Temperature

Stations

Nearby Weather Stations

Station Location Temp. Windchill Dew Point Humidity Wind Precip. Elev Updated Type